createdAt,value
2022-07-31T00:00:32.643Z,17.63
2022-07-31T00:03:40.607Z,17.59
2022-07-31T00:06:46.720Z,17.58
2022-07-31T00:09:54.332Z,17.50
2022-07-31T00:13:00.904Z,17.40
2022-07-31T00:16:06.959Z,17.53
2022-07-31T00:19:14.285Z,17.46
2022-07-31T00:22:20.383Z,17.48
2022-07-31T00:25:26.527Z,17.54
2022-07-31T00:28:33.213Z,17.45
2022-07-31T00:31:39.583Z,17.47
2022-07-31T00:34:47.422Z,17.31
2022-07-31T00:38:02.183Z,17.31
2022-07-31T00:41:19.853Z,17.36
2022-07-31T00:44:26.072Z,17.38
2022-07-31T00:47:32.449Z,16.88
2022-07-31T00:50:40.144Z,16.50
2022-07-31T00:53:46.320Z,16.70
2022-07-31T00:56:53.188Z,16.94
2022-07-31T00:59:59.640Z,16.72
2022-07-31T01:03:05.935Z,17.12
2022-07-31T01:06:13.680Z,17.20
2022-07-31T01:09:20.043Z,16.90
2022-07-31T01:12:31.091Z,16.95
2022-07-31T01:15:40.147Z,16.97
2022-07-31T01:18:47.958Z,17.05
2022-07-31T01:22:33.362Z,16.96
2022-07-31T01:25:54.275Z,16.56
2022-07-31T01:29:11.915Z,16.45
2022-07-31T01:32:27.513Z,16.84
2022-07-31T01:35:41.012Z,16.78
2022-07-31T01:38:51.336Z,16.83
2022-07-31T01:41:58.715Z,16.81
2022-07-31T01:45:10.712Z,16.76
2022-07-31T01:48:17.980Z,16.73
2022-07-31T01:51:26.967Z,15.56
2022-07-31T01:54:35.231Z,15.52
2022-07-31T01:57:44.016Z,15.51
2022-07-31T02:00:54.068Z,15.46
2022-07-31T02:04:03.069Z,15.35
2022-07-31T02:07:11.118Z,15.27
2022-07-31T02:10:21.160Z,15.74
2022-07-31T02:13:28.956Z,15.64
2022-07-31T02:16:37.968Z,15.55
2022-07-31T02:19:59.633Z,15.97
2022-07-31T02:23:07.678Z,15.72
2022-07-31T02:26:16.854Z,15.55
2022-07-31T02:29:25.267Z,15.73
2022-07-31T02:32:34.908Z,15.50
2022-07-31T02:35:45.685Z,15.73
2022-07-31T02:38:55.106Z,16.11
2022-07-31T02:42:02.857Z,16.26
2022-07-31T02:45:11.417Z,16.46
2022-07-31T02:48:19.711Z,16.57
2022-07-31T02:51:26.106Z,16.62
2022-07-31T02:54:34.544Z,16.70
2022-07-31T02:57:40.807Z,16.70
2022-07-31T03:01:00.163Z,16.80
2022-07-31T03:04:08.412Z,16.73
2022-07-31T03:07:14.387Z,16.73
2022-07-31T03:10:20.526Z,16.66
2022-07-31T03:13:30.049Z,16.78
2022-07-31T03:16:37.275Z,16.64
2022-07-31T03:19:45.024Z,16.73
2022-07-31T03:22:52.078Z,16.96
2022-07-31T03:25:58.838Z,16.96
2022-07-31T03:29:05.898Z,16.94
2022-07-31T03:32:32.312Z,17.14
2022-07-31T03:35:42.407Z,17.09
2022-07-31T03:38:51.432Z,16.97
2022-07-31T03:41:58.862Z,16.80
2022-07-31T03:45:07.074Z,16.93
2022-07-31T03:48:14.249Z,17.04
2022-07-31T03:51:22.014Z,17.10
2022-07-31T03:54:28.420Z,17.20
2022-07-31T03:57:35.209Z,17.03
2022-07-31T04:00:42.594Z,17.09
2022-07-31T04:03:49.298Z,16.78
2022-07-31T04:06:57.529Z,16.94
2022-07-31T04:10:04.059Z,16.93
2022-07-31T04:13:28.759Z,16.69
2022-07-31T04:16:35.094Z,16.76
2022-07-31T04:19:41.291Z,17.04
2022-07-31T04:22:49.530Z,17.01
2022-07-31T04:25:55.675Z,16.47
2022-07-31T04:29:01.915Z,16.19
2022-07-31T04:32:08.484Z,16.69
2022-07-31T04:35:14.955Z,16.62
2022-07-31T04:38:22.491Z,16.56
2022-07-31T04:41:29.318Z,16.86
2022-07-31T04:44:35.583Z,16.58
2022-07-31T04:47:41.806Z,17.16
2022-07-31T04:50:48.292Z,17.62
2022-07-31T04:53:55.851Z,17.22
2022-07-31T04:57:02.120Z,17.70
2022-07-31T05:00:10.479Z,17.21
2022-07-31T05:03:16.701Z,17.42
2022-07-31T05:06:22.819Z,17.29
2022-07-31T05:09:33.473Z,16.80
2022-07-31T05:12:42.384Z,16.83
2022-07-31T05:15:48.323Z,17.03
2022-07-31T05:18:54.339Z,16.84
2022-07-31T05:22:02.653Z,16.59
2022-07-31T05:25:11.111Z,16.46
2022-07-31T05:28:17.103Z,17.41
2022-07-31T05:31:35.930Z,17.97
2022-07-31T05:34:42.074Z,17.22
2022-07-31T05:37:48.282Z,17.41
2022-07-31T05:40:56.151Z,16.70
2022-07-31T05:44:02.432Z,17.02
2022-07-31T05:47:09.345Z,17.59
2022-07-31T05:50:15.868Z,16.96
2022-07-31T05:53:22.365Z,17.41
2022-07-31T05:56:30.323Z,16.88
2022-07-31T05:59:36.607Z,17.30
2022-07-31T06:02:42.643Z,16.96
2022-07-31T06:05:48.956Z,17.04
2022-07-31T06:08:55.166Z,18.07
2022-07-31T06:12:02.474Z,18.55
2022-07-31T06:15:09.360Z,17.71
2022-07-31T06:18:16.298Z,17.72
2022-07-31T06:21:25.566Z,18.66
2022-07-31T06:24:33.766Z,18.38
2022-07-31T06:27:42.223Z,18.79
2022-07-31T06:30:48.608Z,18.84
2022-07-31T06:33:54.578Z,19.91
2022-07-31T06:37:00.514Z,19.35
2022-07-31T06:40:07.604Z,20.13
2022-07-31T06:43:17.109Z,20.36
2022-07-31T06:46:23.305Z,20.17
2022-07-31T06:49:29.305Z,20.71
2022-07-31T06:52:35.266Z,20.88
2022-07-31T06:55:44.103Z,21.01
2022-07-31T06:58:52.172Z,21.10
2022-07-31T07:01:58.460Z,21.65
2022-07-31T07:05:06.859Z,21.68
2022-07-31T07:08:13.351Z,21.51
2022-07-31T07:11:20.318Z,21.83
2022-07-31T07:14:27.718Z,22.01
2022-07-31T07:17:34.065Z,22.01
2022-07-31T07:20:40.736Z,21.92
2022-07-31T07:23:47.027Z,22.01
2022-07-31T07:26:53.519Z,22.37
2022-07-31T07:30:01.697Z,22.81
2022-07-31T07:33:08.186Z,23.50
2022-07-31T07:36:22.720Z,22.99
2022-07-31T07:39:29.684Z,23.04
2022-07-31T07:42:35.838Z,23.45
2022-07-31T07:45:43.507Z,23.09
2022-07-31T07:48:51.981Z,23.01
2022-07-31T07:52:00.325Z,22.66
2022-07-31T07:55:08.227Z,23.01
2022-07-31T07:58:14.156Z,22.93
2022-07-31T08:01:21.885Z,23.73
2022-07-31T08:04:27.831Z,23.03
2022-07-31T08:07:42.636Z,24.22
2022-07-31T08:10:49.328Z,24.00
2022-07-31T08:13:55.836Z,23.75
2022-07-31T08:17:03.555Z,23.86
2022-07-31T08:20:10.942Z,23.92
2022-07-31T08:23:18.251Z,24.81
2022-07-31T08:26:28.060Z,24.53
2022-07-31T08:29:34.744Z,24.90
2022-07-31T08:32:45.424Z,24.14
2022-07-31T08:35:51.924Z,24.84
2022-07-31T08:38:57.924Z,25.25
2022-07-31T08:42:06.705Z,25.69
2022-07-31T08:45:14.215Z,25.39
2022-07-31T08:48:26.164Z,25.14
2022-07-31T08:51:51.465Z,25.75
2022-07-31T08:54:59.754Z,25.97
2022-07-31T08:58:06.526Z,25.49
2022-07-31T09:01:13.916Z,25.45
2022-07-31T09:04:21.444Z,25.95
2022-07-31T09:07:27.617Z,25.82
2022-07-31T09:10:33.959Z,25.87
2022-07-31T09:13:41.453Z,25.52
2022-07-31T09:16:50.449Z,26.24
2022-07-31T09:19:58.130Z,25.70
2022-07-31T09:23:09.338Z,26.08
2022-07-31T09:26:16.509Z,25.26
2022-07-31T09:29:35.187Z,25.33
2022-07-31T09:32:43.343Z,25.21
2022-07-31T09:35:51.495Z,25.77
2022-07-31T09:38:59.287Z,25.98
2022-07-31T09:42:16.381Z,25.80
2022-07-31T09:45:25.749Z,25.52
2022-07-31T09:48:32.804Z,25.41
2022-07-31T09:51:43.523Z,24.97
2022-07-31T09:54:50.309Z,24.70
2022-07-31T09:57:58.895Z,25.18
2022-07-31T10:01:06.197Z,24.52
2022-07-31T10:04:13.127Z,24.72
2022-07-31T10:07:32.471Z,24.32
2022-07-31T10:10:39.871Z,24.67
2022-07-31T10:13:48.171Z,25.60
2022-07-31T10:17:00.501Z,24.50
2022-07-31T10:20:09.031Z,24.71
2022-07-31T10:23:22.730Z,25.16
2022-07-31T10:26:50.570Z,25.01
2022-07-31T10:29:56.632Z,25.35
2022-07-31T10:33:17.471Z,25.35
2022-07-31T10:36:38.124Z,25.32
2022-07-31T10:39:57.987Z,25.78
2022-07-31T10:43:20.970Z,25.51
2022-07-31T10:46:31.976Z,25.71
2022-07-31T10:49:42.268Z,26.04
2022-07-31T10:52:48.444Z,26.20
2022-07-31T10:56:03.343Z,26.23
2022-07-31T10:59:11.082Z,26.56
2022-07-31T11:02:29.870Z,26.13
2022-07-31T11:06:01.453Z,26.29
2022-07-31T11:09:02.416Z,26.58
2022-07-31T11:12:20.340Z,26.52
2022-07-31T11:15:27.092Z,26.55
2022-07-31T11:18:34.726Z,26.88
2022-07-31T11:21:43.092Z,26.73
2022-07-31T11:24:56.063Z,26.60
2022-07-31T11:28:14.166Z,27.00
2022-07-31T11:31:20.338Z,26.95
2022-07-31T11:34:26.822Z,26.75
2022-07-31T11:37:46.580Z,26.81
2022-07-31T11:41:00.282Z,26.86
2022-07-31T11:44:08.648Z,27.21
2022-07-31T11:47:27.872Z,27.61
2022-07-31T11:50:41.935Z,27.47
2022-07-31T11:53:51.081Z,27.11
2022-07-31T11:57:03.874Z,28.05
2022-07-31T12:00:29.088Z,27.85
2022-07-31T12:03:37.672Z,28.15
2022-07-31T12:06:44.108Z,27.82
2022-07-31T12:10:00.358Z,27.79
2022-07-31T12:13:15.898Z,27.44
2022-07-31T12:16:24.027Z,28.52
2022-07-31T12:19:31.754Z,28.27
2022-07-31T12:22:43.892Z,28.17
2022-07-31T12:25:50.126Z,28.23
2022-07-31T12:29:04.228Z,28.01
2022-07-31T12:32:12.086Z,27.91
2022-07-31T12:35:18.791Z,27.50
2022-07-31T12:38:44.974Z,28.43
2022-07-31T12:41:51.789Z,28.19
2022-07-31T12:45:19.460Z,28.46
2022-07-31T12:48:28.072Z,28.10
2022-07-31T12:51:45.852Z,28.05
2022-07-31T12:54:52.658Z,27.79
2022-07-31T12:57:58.786Z,28.00
2022-07-31T13:01:04.834Z,27.15
2022-07-31T13:04:19.270Z,28.03
2022-07-31T13:07:25.771Z,27.10
2022-07-31T13:10:32.380Z,27.13
2022-07-31T13:13:38.523Z,27.35
2022-07-31T13:16:44.562Z,26.75
2022-07-31T13:19:52.333Z,27.18
2022-07-31T13:22:59.684Z,27.49
2022-07-31T13:26:05.803Z,26.28
2022-07-31T13:29:12.316Z,27.06
2022-07-31T13:32:18.268Z,26.26
2022-07-31T13:35:28.960Z,27.16
2022-07-31T13:38:35.516Z,27.46
2022-07-31T13:41:41.933Z,27.30
2022-07-31T13:44:48.129Z,27.37
2022-07-31T13:47:59.653Z,27.11
2022-07-31T13:51:07.464Z,28.05
2022-07-31T13:54:13.920Z,27.79
2022-07-31T13:57:19.937Z,27.58
2022-07-31T14:00:25.728Z,27.54
2022-07-31T14:03:32.045Z,27.50
2022-07-31T14:06:41.736Z,27.55
2022-07-31T14:09:55.101Z,28.16
2022-07-31T14:13:01.822Z,27.28
2022-07-31T14:16:07.830Z,27.60
2022-07-31T14:19:13.809Z,27.54
2022-07-31T14:22:21.161Z,27.48
2022-07-31T14:25:27.532Z,28.10
2022-07-31T14:28:33.855Z,28.30
2022-07-31T14:31:39.884Z,27.92
2022-07-31T14:34:46.052Z,28.76
2022-07-31T14:37:53.672Z,28.17
2022-07-31T14:40:59.887Z,27.81
2022-07-31T14:44:06.432Z,26.93
2022-07-31T14:47:12.996Z,28.11
2022-07-31T14:50:20.059Z,27.23
2022-07-31T14:53:27.891Z,27.60
2022-07-31T14:56:59.522Z,27.40
2022-07-31T15:00:00.704Z,27.60
2022-07-31T15:03:07.437Z,27.58
2022-07-31T15:06:41.706Z,27.27
2022-07-31T15:09:45.092Z,27.45
2022-07-31T15:12:51.263Z,27.44
2022-07-31T15:15:57.289Z,27.63
2022-07-31T15:19:03.426Z,27.61
2022-07-31T15:22:16.993Z,28.02
2022-07-31T15:25:25.326Z,27.47
2022-07-31T15:28:31.795Z,27.86
2022-07-31T15:31:37.852Z,28.81
2022-07-31T15:34:43.727Z,27.60
2022-07-31T15:37:50.707Z,26.39
2022-07-31T15:40:58.206Z,25.97
2022-07-31T15:44:04.287Z,26.02
2022-07-31T15:47:10.361Z,25.95
2022-07-31T15:50:18.882Z,25.52
2022-07-31T15:53:29.749Z,25.33
2022-07-31T15:56:46.839Z,25.54
2022-07-31T15:59:55.299Z,25.78
2022-07-31T16:03:01.962Z,25.43
2022-07-31T16:06:14.812Z,25.17
2022-07-31T16:09:23.993Z,25.23
2022-07-31T16:12:31.198Z,25.16
2022-07-31T16:15:37.601Z,25.30
2022-07-31T16:18:44.517Z,25.17
2022-07-31T16:21:50.508Z,25.09
2022-07-31T16:24:57.240Z,24.98
2022-07-31T16:28:05.507Z,24.79
2022-07-31T16:31:11.909Z,24.74
2022-07-31T16:34:36.730Z,24.76
2022-07-31T16:37:52.377Z,24.61
2022-07-31T16:40:59.631Z,24.62
2022-07-31T16:44:07.367Z,24.52
2022-07-31T16:47:13.839Z,24.49
2022-07-31T16:50:19.954Z,24.27
2022-07-31T16:54:10.299Z,24.28
2022-07-31T16:56:54.983Z,24.15
2022-07-31T17:00:02.781Z,24.18
2022-07-31T17:03:59.288Z,23.96
2022-07-31T17:06:38.052Z,23.97
2022-07-31T17:09:44.793Z,23.66
2022-07-31T17:12:51.060Z,23.62
2022-07-31T17:15:58.602Z,23.45
2022-07-31T17:19:05.802Z,23.54
2022-07-31T17:22:17.706Z,23.36
2022-07-31T17:25:24.521Z,23.36
2022-07-31T17:28:30.640Z,23.27
2022-07-31T17:31:38.365Z,23.35
2022-07-31T17:34:45.935Z,23.15
2022-07-31T17:37:52.302Z,23.22
2022-07-31T17:41:00.378Z,22.93
2022-07-31T17:44:06.681Z,22.65
2022-07-31T17:47:14.660Z,22.81
2022-07-31T17:50:21.150Z,22.64
2022-07-31T17:53:54.758Z,22.60
2022-07-31T17:56:53.471Z,22.55
2022-07-31T17:59:59.731Z,22.68
2022-07-31T18:03:07.176Z,22.69
2022-07-31T18:06:13.663Z,22.70
2022-07-31T18:09:23.334Z,22.73
2022-07-31T18:12:29.548Z,22.49
2022-07-31T18:15:55.788Z,22.56
2022-07-31T18:19:03.458Z,22.51
2022-07-31T18:22:09.540Z,22.40
2022-07-31T18:25:16.581Z,22.15
2022-07-31T18:28:24.207Z,22.02
2022-07-31T18:31:34.104Z,21.82
2022-07-31T18:34:43.011Z,21.70
2022-07-31T18:37:49.071Z,21.66
2022-07-31T18:40:56.058Z,21.35
2022-07-31T18:44:02.391Z,21.39
2022-07-31T18:47:08.866Z,21.43
2022-07-31T18:51:01.370Z,21.14
2022-07-31T18:53:47.508Z,21.20
2022-07-31T18:56:55.159Z,21.28
2022-07-31T19:00:02.678Z,21.13
2022-07-31T19:03:09.948Z,20.85
2022-07-31T19:06:18.214Z,20.66
2022-07-31T19:09:25.406Z,20.94
2022-07-31T19:12:31.738Z,20.94
2022-07-31T19:15:38.571Z,20.61
2022-07-31T19:18:45.111Z,20.40
2022-07-31T19:21:52.756Z,20.55
2022-07-31T19:24:59.229Z,20.68
2022-07-31T19:28:06.219Z,20.77
2022-07-31T19:31:18.395Z,20.40
2022-07-31T19:34:24.820Z,20.23
2022-07-31T19:37:32.658Z,20.46
2022-07-31T19:40:39.159Z,20.50
2022-07-31T19:43:45.884Z,20.29
2022-07-31T19:46:52.370Z,20.25
2022-07-31T19:49:58.577Z,19.68
2022-07-31T19:53:06.030Z,20.07
2022-07-31T19:56:19.763Z,20.03
2022-07-31T19:59:27.432Z,19.87
2022-07-31T20:02:33.678Z,19.92
2022-07-31T20:05:39.795Z,19.69
2022-07-31T20:08:47.410Z,19.61
2022-07-31T20:11:53.710Z,19.97
2022-07-31T20:15:00.686Z,19.53
2022-07-31T20:18:06.904Z,19.82
2022-07-31T20:21:13.903Z,19.74
2022-07-31T20:24:21.320Z,19.85
2022-07-31T20:27:27.686Z,19.87
2022-07-31T20:30:33.489Z,19.86
2022-07-31T20:33:39.740Z,19.75
2022-07-31T20:36:46.455Z,19.82
2022-07-31T20:39:54.129Z,19.89
2022-07-31T20:43:00.413Z,19.91
2022-07-31T20:46:06.772Z,19.73
2022-07-31T20:49:19.787Z,19.83
2022-07-31T20:52:39.173Z,19.67
2022-07-31T20:55:48.348Z,19.67
2022-07-31T20:58:54.367Z,19.60
2022-07-31T21:02:00.371Z,19.27
2022-07-31T21:05:07.750Z,19.52
2022-07-31T21:08:14.043Z,19.42
2022-07-31T21:11:21.644Z,19.34
2022-07-31T21:14:38.069Z,19.42
2022-07-31T21:17:44.266Z,19.04
2022-07-31T21:20:53.668Z,18.99
2022-07-31T21:24:00.973Z,19.08
2022-07-31T21:27:12.159Z,18.78
2022-07-31T21:30:18.600Z,18.55
2022-07-31T21:33:26.063Z,18.84
2022-07-31T21:36:32.436Z,19.02
2022-07-31T21:39:39.309Z,19.04
2022-07-31T21:42:47.721Z,18.87
2022-07-31T21:46:01.969Z,18.91
2022-07-31T21:49:08.939Z,18.97
2022-07-31T21:52:15.487Z,18.91
2022-07-31T21:55:21.985Z,18.83
2022-07-31T21:58:29.794Z,18.72
2022-07-31T22:01:36.340Z,18.71
2022-07-31T22:04:56.655Z,18.61
2022-07-31T22:08:03.278Z,18.68
2022-07-31T22:11:11.075Z,18.78
2022-07-31T22:14:19.025Z,18.72
2022-07-31T22:17:25.107Z,18.59
2022-07-31T22:20:31.576Z,18.58
2022-07-31T22:23:38.000Z,18.56
2022-07-31T22:27:07.903Z,18.58
2022-07-31T22:30:18.061Z,18.25
2022-07-31T22:33:24.634Z,18.44
2022-07-31T22:36:30.737Z,18.24
2022-07-31T22:39:37.995Z,17.95
2022-07-31T22:42:44.666Z,18.07
2022-07-31T22:46:04.302Z,18.28
2022-07-31T22:49:11.318Z,17.87
2022-07-31T22:52:18.468Z,18.04
2022-07-31T22:55:25.112Z,18.11
2022-07-31T22:58:31.302Z,17.93
2022-07-31T23:01:39.017Z,18.27
2022-07-31T23:04:45.695Z,18.25
2022-07-31T23:07:51.571Z,17.98
2022-07-31T23:10:57.763Z,17.76
2022-07-31T23:14:03.637Z,17.89
2022-07-31T23:17:10.961Z,17.96
2022-07-31T23:20:29.386Z,17.82
2022-07-31T23:23:35.625Z,17.53
2022-07-31T23:26:41.836Z,17.69
2022-07-31T23:29:48.021Z,17.31
2022-07-31T23:32:55.488Z,17.43
2022-07-31T23:36:02.161Z,17.54
2022-07-31T23:39:08.444Z,17.65
2022-07-31T23:42:32.144Z,17.65
2022-07-31T23:45:38.543Z,17.58
2022-07-31T23:48:45.908Z,17.46
2022-07-31T23:51:52.281Z,17.48
2022-07-31T23:54:58.540Z,17.53
2022-07-31T23:58:04.931Z,17.19
